sensor_id;sensor_type;location;lat;lon;timestamp;pressure;altitude;pressure_sealevel;temperature;humidity
44992;BME280;56865;51.618;7.406;2023-03-23T00:00:14;99656.38;;;19.98;100.00
44992;BME280;56865;51.618;7.406;2023-03-23T00:02:44;99639.94;;;19.33;100.00
44992;BME280;56865;51.618;7.406;2023-03-23T00:05:16;99630.75;;;18.85;100.00
44992;BME280;56865;51.618;7.406;2023-03-23T00:07:46;99622.34;;;18.38;100.00
44992;BME280;56865;51.618;7.406;2023-03-23T00:10:18;99641.69;;;20.28;100.00
44992;BME280;56865;51.618;7.406;2023-03-23T00:12:50;99640.13;;;19.93;100.00
44992;BME280;56865;51.618;7.406;2023-03-23T00:15:23;99643.50;;;19.29;100.00
44992;BME280;56865;51.618;7.406;2023-03-23T00:17:53;99644.06;;;20.36;100.00
44992;BME280;56865;51.618;7.406;2023-03-23T00:20:31;99643.25;;;19.73;100.00
44992;BME280;56865;51.618;7.406;2023-03-23T00:23:06;99627.53;;;19.14;100.00
44992;BME280;56865;51.618;7.406;2023-03-23T00:25:36;99624.16;;;19.11;100.00
44992;BME280;56865;51.618;7.406;2023-03-23T00:28:06;99624.00;;;19.17;100.00
44992;BME280;56865;51.618;7.406;2023-03-23T00:30:35;99609.84;;;18.97;100.00
44992;BME280;56865;51.618;7.406;2023-03-23T00:33:05;99620.66;;;19.46;100.00
44992;BME280;56865;51.618;7.406;2023-03-23T00:35:37;99605.31;;;19.40;100.00
44992;BME280;56865;51.618;7.406;2023-03-23T00:38:07;99610.34;;;19.78;100.00
44992;BME280;56865;51.618;7.406;2023-03-23T00:40:37;99603.34;;;19.15;100.00
44992;BME280;56865;51.618;7.406;2023-03-23T00:43:07;99605.38;;;19.70;100.00
44992;BME280;56865;51.618;7.406;2023-03-23T00:45:40;99609.91;;;19.62;100.00
44992;BME280;56865;51.618;7.406;2023-03-23T00:48:11;99598.59;;;19.35;100.00
44992;BME280;56865;51.618;7.406;2023-03-23T00:50:44;99598.06;;;19.53;100.00
44992;BME280;56865;51.618;7.406;2023-03-23T00:53:14;99594.94;;;19.75;100.00
44992;BME280;56865;51.618;7.406;2023-03-23T00:55:44;99600.97;;;19.08;100.00
44992;BME280;56865;51.618;7.406;2023-03-23T00:58:14;99600.94;;;18.73;100.00
44992;BME280;56865;51.618;7.406;2023-03-23T01:00:44;99591.94;;;18.52;100.00
44992;BME280;56865;51.618;7.406;2023-03-23T01:03:14;99594.81;;;18.77;100.00
44992;BME280;56865;51.618;7.406;2023-03-23T01:05:47;99608.84;;;19.38;100.00
44992;BME280;56865;51.618;7.406;2023-03-23T01:08:18;99607.50;;;19.89;100.00
44992;BME280;56865;51.618;7.406;2023-03-23T01:10:48;99600.09;;;19.09;100.00
44992;BME280;56865;51.618;7.406;2023-03-23T01:13:20;99603.84;;;19.63;100.00
44992;BME280;56865;51.618;7.406;2023-03-23T01:15:50;99606.47;;;19.94;100.00
44992;BME280;56865;51.618;7.406;2023-03-23T01:18:19;99605.28;;;19.73;100.00
44992;BME280;56865;51.618;7.406;2023-03-23T01:20:52;99603.28;;;20.14;100.00
44992;BME280;56865;51.618;7.406;2023-03-23T01:23:22;99606.66;;;20.18;100.00
44992;BME280;56865;51.618;7.406;2023-03-23T01:25:52;99600.16;;;19.72;100.00
44992;BME280;56865;51.618;7.406;2023-03-23T01:28:24;99606.88;;;19.79;100.00
44992;BME280;56865;51.618;7.406;2023-03-23T01:30:58;99605.16;;;19.78;100.00
44992;BME280;56865;51.618;7.406;2023-03-23T01:33:28;99601.16;;;19.99;100.00
44992;BME280;56865;51.618;7.406;2023-03-23T01:36:01;99596.59;;;20.07;100.00
44992;BME280;56865;51.618;7.406;2023-03-23T01:38:31;99592.09;;;19.84;100.00
44992;BME280;56865;51.618;7.406;2023-03-23T01:41:01;99587.94;;;20.08;100.00
44992;BME280;56865;51.618;7.406;2023-03-23T01:43:31;99577.25;;;19.91;100.00
44992;BME280;56865;51.618;7.406;2023-03-23T01:48:58;99595.19;;;19.97;100.00
44992;BME280;56865;51.618;7.406;2023-03-23T01:51:35;99598.03;;;19.88;100.00
44992;BME280;56865;51.618;7.406;2023-03-23T01:54:08;99606.25;;;20.02;100.00
44992;BME280;56865;51.618;7.406;2023-03-23T01:56:41;99566.56;;;19.07;100.00
44992;BME280;56865;51.618;7.406;2023-03-23T01:59:14;99512.25;;;19.72;100.00
44992;BME280;56865;51.618;7.406;2023-03-23T02:01:43;99513.88;;;19.44;100.00
44992;BME280;56865;51.618;7.406;2023-03-23T02:04:14;99524.91;;;19.20;100.00
44992;BME280;56865;51.618;7.406;2023-03-23T02:06:48;99507.66;;;18.87;100.00
44992;BME280;56865;51.618;7.406;2023-03-23T02:09:18;99514.97;;;19.37;100.00
44992;BME280;56865;51.618;7.406;2023-03-23T02:11:48;99521.47;;;19.51;100.00
44992;BME280;56865;51.618;7.406;2023-03-23T02:14:18;99508.47;;;19.22;100.00
44992;BME280;56865;51.618;7.406;2023-03-23T02:16:49;99518.03;;;18.84;100.00
44992;BME280;56865;51.618;7.406;2023-03-23T02:19:30;99533.69;;;18.78;100.00
44992;BME280;56865;51.618;7.406;2023-03-23T02:25:00;99515.69;;;19.11;100.00
44992;BME280;56865;51.618;7.406;2023-03-23T02:30:40;99526.94;;;18.36;100.00
44992;BME280;56865;51.618;7.406;2023-03-23T02:33:27;99535.63;;;19.04;100.00
44992;BME280;56865;51.618;7.406;2023-03-23T02:35:59;99529.13;;;18.88;100.00
44992;BME280;56865;51.618;7.406;2023-03-23T02:38:32;99521.03;;;17.92;100.00
44992;BME280;56865;51.618;7.406;2023-03-23T02:41:05;99527.34;;;18.57;100.00
44992;BME280;56865;51.618;7.406;2023-03-23T02:43:36;99526.16;;;18.34;100.00
44992;BME280;56865;51.618;7.406;2023-03-23T02:46:08;99520.69;;;19.15;100.00
44992;BME280;56865;51.618;7.406;2023-03-23T02:48:41;99526.84;;;19.74;100.00
44992;BME280;56865;51.618;7.406;2023-03-23T02:51:12;99521.03;;;19.36;100.00
44992;BME280;56865;51.618;7.406;2023-03-23T02:53:42;99514.84;;;20.30;100.00
44992;BME280;56865;51.618;7.406;2023-03-23T02:56:14;99508.78;;;19.73;100.00
44992;BME280;56865;51.618;7.406;2023-03-23T02:58:44;99512.22;;;19.73;100.00
44992;BME280;56865;51.618;7.406;2023-03-23T03:01:14;99503.44;;;19.17;100.00
44992;BME280;56865;51.618;7.406;2023-03-23T03:03:48;99498.44;;;19.73;100.00
44992;BME280;56865;51.618;7.406;2023-03-23T03:06:19;99489.31;;;19.31;100.00
44992;BME280;56865;51.618;7.406;2023-03-23T03:08:55;99488.50;;;20.17;100.00
44992;BME280;56865;51.618;7.406;2023-03-23T03:11:29;99484.56;;;19.45;100.00
44992;BME280;56865;51.618;7.406;2023-03-23T03:14:01;99480.25;;;19.76;100.00
44992;BME280;56865;51.618;7.406;2023-03-23T03:16:33;99498.03;;;19.57;100.00
44992;BME280;56865;51.618;7.406;2023-03-23T03:19:09;99502.59;;;19.48;100.00
44992;BME280;56865;51.618;7.406;2023-03-23T03:21:44;99477.34;;;19.57;100.00
44992;BME280;56865;51.618;7.406;2023-03-23T03:24:15;99494.75;;;20.10;100.00
44992;BME280;56865;51.618;7.406;2023-03-23T03:26:47;99490.13;;;19.93;100.00
44992;BME280;56865;51.618;7.406;2023-03-23T03:29:20;99500.72;;;20.40;100.00
44992;BME280;56865;51.618;7.406;2023-03-23T03:31:51;99481.38;;;19.97;100.00
44992;BME280;56865;51.618;7.406;2023-03-23T03:34:25;99495.19;;;19.66;100.00
44992;BME280;56865;51.618;7.406;2023-03-23T03:36:58;99482.34;;;19.63;100.00
44992;BME280;56865;51.618;7.406;2023-03-23T03:39:33;99480.28;;;19.14;100.00
44992;BME280;56865;51.618;7.406;2023-03-23T03:42:04;99476.41;;;19.59;100.00
44992;BME280;56865;51.618;7.406;2023-03-23T03:44:34;99478.47;;;19.48;100.00
44992;BME280;56865;51.618;7.406;2023-03-23T03:47:04;99463.53;;;19.58;100.00
44992;BME280;56865;51.618;7.406;2023-03-23T03:49:36;99467.88;;;19.27;100.00
44992;BME280;56865;51.618;7.406;2023-03-23T03:52:07;99483.25;;;19.00;100.00
44992;BME280;56865;51.618;7.406;2023-03-23T03:54:36;99495.50;;;19.55;100.00
44992;BME280;56865;51.618;7.406;2023-03-23T03:57:07;99486.94;;;19.53;100.00
44992;BME280;56865;51.618;7.406;2023-03-23T03:59:36;99496.00;;;20.80;100.00
44992;BME280;56865;51.618;7.406;2023-03-23T04:02:06;99494.34;;;20.51;100.00
44992;BME280;56865;51.618;7.406;2023-03-23T04:04:42;99479.34;;;19.48;100.00
44992;BME280;56865;51.618;7.406;2023-03-23T04:07:12;99478.75;;;19.07;100.00
44992;BME280;56865;51.618;7.406;2023-03-23T04:09:43;99474.81;;;20.13;100.00
44992;BME280;56865;51.618;7.406;2023-03-23T04:12:14;99476.13;;;20.27;100.00
44992;BME280;56865;51.618;7.406;2023-03-23T04:14:44;99476.50;;;19.88;100.00
44992;BME280;56865;51.618;7.406;2023-03-23T04:17:13;99480.91;;;20.39;100.00
44992;BME280;56865;51.618;7.406;2023-03-23T04:19:46;99471.03;;;19.67;100.00
44992;BME280;56865;51.618;7.406;2023-03-23T04:22:16;99483.81;;;20.57;100.00
44992;BME280;56865;51.618;7.406;2023-03-23T04:24:46;99493.88;;;20.11;100.00
44992;BME280;56865;51.618;7.406;2023-03-23T04:27:21;99500.00;;;19.48;100.00
44992;BME280;56865;51.618;7.406;2023-03-23T04:29:51;99490.97;;;19.63;100.00
44992;BME280;56865;51.618;7.406;2023-03-23T04:32:21;99496.88;;;19.67;100.00
44992;BME280;56865;51.618;7.406;2023-03-23T04:34:54;99505.63;;;19.63;100.00
44992;BME280;56865;51.618;7.406;2023-03-23T04:37:24;99488.22;;;19.68;100.00
44992;BME280;56865;51.618;7.406;2023-03-23T04:40:00;99498.53;;;20.28;100.00
44992;BME280;56865;51.618;7.406;2023-03-23T04:42:34;99502.72;;;20.32;100.00
44992;BME280;56865;51.618;7.406;2023-03-23T04:45:04;99510.03;;;20.19;100.00
44992;BME280;56865;51.618;7.406;2023-03-23T04:47:36;99507.78;;;19.77;100.00
44992;BME280;56865;51.618;7.406;2023-03-23T04:50:11;99517.03;;;20.42;100.00
44992;BME280;56865;51.618;7.406;2023-03-23T04:52:41;99527.41;;;20.69;100.00
44992;BME280;56865;51.618;7.406;2023-03-23T04:55:12;99517.25;;;20.63;100.00
44992;BME280;56865;51.618;7.406;2023-03-23T04:57:41;99512.47;;;20.51;100.00
44992;BME280;56865;51.618;7.406;2023-03-23T05:00:12;99510.34;;;20.37;100.00
44992;BME280;56865;51.618;7.406;2023-03-23T05:02:43;99511.38;;;20.31;100.00
44992;BME280;56865;51.618;7.406;2023-03-23T05:05:20;99514.19;;;20.23;100.00
44992;BME280;56865;51.618;7.406;2023-03-23T05:07:51;99510.13;;;20.70;100.00
44992;BME280;56865;51.618;7.406;2023-03-23T05:10:23;99507.75;;;20.37;100.00
44992;BME280;56865;51.618;7.406;2023-03-23T05:12:53;99511.09;;;19.84;100.00
44992;BME280;56865;51.618;7.406;2023-03-23T05:15:23;99524.91;;;19.83;100.00
44992;BME280;56865;51.618;7.406;2023-03-23T05:17:52;99510.78;;;20.21;100.00
44992;BME280;56865;51.618;7.406;2023-03-23T05:20:25;99520.44;;;20.18;100.00
44992;BME280;56865;51.618;7.406;2023-03-23T05:22:56;99528.34;;;20.40;100.00
44992;BME280;56865;51.618;7.406;2023-03-23T05:25:26;99527.19;;;20.49;100.00
44992;BME280;56865;51.618;7.406;2023-03-23T05:27:56;99532.56;;;19.86;100.00
44992;BME280;56865;51.618;7.406;2023-03-23T05:30:29;99526.16;;;19.99;100.00
44992;BME280;56865;51.618;7.406;2023-03-23T05:32:59;99529.44;;;20.04;100.00
44992;BME280;56865;51.618;7.406;2023-03-23T05:35:32;99529.72;;;19.95;100.00
44992;BME280;56865;51.618;7.406;2023-03-23T05:38:03;99526.72;;;20.64;100.00
44992;BME280;56865;51.618;7.406;2023-03-23T05:40:33;99533.28;;;21.26;100.00
44992;BME280;56865;51.618;7.406;2023-03-23T05:43:02;99535.78;;;20.51;100.00
44992;BME280;56865;51.618;7.406;2023-03-23T05:45:32;99547.59;;;20.31;100.00
44992;BME280;56865;51.618;7.406;2023-03-23T05:48:02;99539.41;;;20.73;100.00
44992;BME280;56865;51.618;7.406;2023-03-23T05:50:34;99541.06;;;21.01;100.00
44992;BME280;56865;51.618;7.406;2023-03-23T05:53:04;99547.50;;;21.15;100.00
44992;BME280;56865;51.618;7.406;2023-03-23T05:55:35;99549.22;;;21.39;100.00
44992;BME280;56865;51.618;7.406;2023-03-23T05:58:04;99535.53;;;20.85;100.00
44992;BME280;56865;51.618;7.406;2023-03-23T06:00:34;99534.41;;;20.39;100.00
44992;BME280;56865;51.618;7.406;2023-03-23T06:03:04;99541.34;;;20.38;100.00
44992;BME280;56865;51.618;7.406;2023-03-23T06:05:36;99534.06;;;20.23;100.00
44992;BME280;56865;51.618;7.406;2023-03-23T06:08:11;99533.97;;;19.97;100.00
44992;BME280;56865;51.618;7.406;2023-03-23T06:10:41;99522.78;;;19.34;100.00
44992;BME280;56865;51.618;7.406;2023-03-23T06:13:11;99535.03;;;19.90;100.00
44992;BME280;56865;51.618;7.406;2023-03-23T06:15:40;99538.28;;;19.97;100.00
44992;BME280;56865;51.618;7.406;2023-03-23T06:18:10;99544.06;;;19.75;100.00
44992;BME280;56865;51.618;7.406;2023-03-23T06:20:43;99540.97;;;19.62;100.00
44992;BME280;56865;51.618;7.406;2023-03-23T06:23:13;99543.16;;;19.76;100.00
44992;BME280;56865;51.618;7.406;2023-03-23T06:25:43;99544.69;;;19.21;100.00
44992;BME280;56865;51.618;7.406;2023-03-23T06:28:12;99551.31;;;18.96;100.00
44992;BME280;56865;51.618;7.406;2023-03-23T06:30:42;99550.00;;;19.47;100.00
44992;BME280;56865;51.618;7.406;2023-03-23T06:33:12;99554.94;;;18.91;100.00
44992;BME280;56865;51.618;7.406;2023-03-23T06:35:45;99549.31;;;18.73;100.00
44992;BME280;56865;51.618;7.406;2023-03-23T06:38:15;99550.75;;;18.83;100.00
44992;BME280;56865;51.618;7.406;2023-03-23T06:40:45;99548.47;;;18.71;100.00
44992;BME280;56865;51.618;7.406;2023-03-23T06:43:16;99559.00;;;18.99;100.00
44992;BME280;56865;51.618;7.406;2023-03-23T06:45:45;99550.03;;;19.14;100.00
44992;BME280;56865;51.618;7.406;2023-03-23T06:48:15;99566.50;;;20.05;100.00
44992;BME280;56865;51.618;7.406;2023-03-23T06:50:47;99570.38;;;20.48;100.00
44992;BME280;56865;51.618;7.406;2023-03-23T06:53:17;99563.50;;;20.19;100.00
44992;BME280;56865;51.618;7.406;2023-03-23T06:55:47;99568.19;;;20.91;100.00
44992;BME280;56865;51.618;7.406;2023-03-23T06:58:17;99569.81;;;20.67;100.00
44992;BME280;56865;51.618;7.406;2023-03-23T07:00:52;99566.78;;;19.64;100.00
44992;BME280;56865;51.618;7.406;2023-03-23T07:03:23;99577.75;;;20.04;100.00
44992;BME280;56865;51.618;7.406;2023-03-23T07:05:56;99561.34;;;20.33;100.00
44992;BME280;56865;51.618;7.406;2023-03-23T07:08:26;99573.47;;;20.59;100.00
44992;BME280;56865;51.618;7.406;2023-03-23T07:10:56;99562.66;;;20.18;100.00
44992;BME280;56865;51.618;7.406;2023-03-23T07:13:26;99585.84;;;20.21;100.00
44992;BME280;56865;51.618;7.406;2023-03-23T07:15:56;99582.78;;;21.19;100.00
44992;BME280;56865;51.618;7.406;2023-03-23T07:18:26;99591.19;;;20.73;100.00
44992;BME280;56865;51.618;7.406;2023-03-23T07:20:59;99584.53;;;21.18;100.00
44992;BME280;56865;51.618;7.406;2023-03-23T07:23:29;99584.47;;;20.94;100.00
44992;BME280;56865;51.618;7.406;2023-03-23T07:25:59;99592.25;;;21.70;100.00
44992;BME280;56865;51.618;7.406;2023-03-23T07:28:29;99602.34;;;20.17;100.00
44992;BME280;56865;51.618;7.406;2023-03-23T07:30:59;99603.41;;;20.68;100.00
44992;BME280;56865;51.618;7.406;2023-03-23T07:33:29;99597.56;;;20.33;100.00
44992;BME280;56865;51.618;7.406;2023-03-23T07:36:01;99613.88;;;21.44;100.00
44992;BME280;56865;51.618;7.406;2023-03-23T07:38:33;99599.34;;;21.65;100.00
44992;BME280;56865;51.618;7.406;2023-03-23T07:41:03;99595.72;;;20.65;100.00
44992;BME280;56865;51.618;7.406;2023-03-23T07:43:33;99616.13;;;20.76;100.00
44992;BME280;56865;51.618;7.406;2023-03-23T07:46:03;99611.09;;;21.25;100.00
44992;BME280;56865;51.618;7.406;2023-03-23T07:48:33;99605.19;;;20.94;100.00
44992;BME280;56865;51.618;7.406;2023-03-23T07:51:07;99601.44;;;20.76;100.00
44992;BME280;56865;51.618;7.406;2023-03-23T07:53:37;99610.34;;;21.21;100.00
44992;BME280;56865;51.618;7.406;2023-03-23T07:56:08;99609.22;;;21.03;100.00
44992;BME280;56865;51.618;7.406;2023-03-23T07:58:38;99609.19;;;21.30;100.00
44992;BME280;56865;51.618;7.406;2023-03-23T08:01:08;99609.44;;;21.48;100.00
44992;BME280;56865;51.618;7.406;2023-03-23T08:03:37;99617.09;;;20.73;100.00
44992;BME280;56865;51.618;7.406;2023-03-23T08:06:10;99612.78;;;20.72;100.00
44992;BME280;56865;51.618;7.406;2023-03-23T08:08:40;99621.50;;;21.49;100.00
44992;BME280;56865;51.618;7.406;2023-03-23T08:11:10;99620.63;;;21.24;100.00
44992;BME280;56865;51.618;7.406;2023-03-23T08:13:41;99613.34;;;21.09;100.00
44992;BME280;56865;51.618;7.406;2023-03-23T08:16:11;99620.56;;;21.51;100.00
44992;BME280;56865;51.618;7.406;2023-03-23T08:18:41;99624.84;;;21.78;100.00
44992;BME280;56865;51.618;7.406;2023-03-23T08:21:13;99629.00;;;21.58;100.00
44992;BME280;56865;51.618;7.406;2023-03-23T08:23:43;99617.81;;;21.81;100.00
44992;BME280;56865;51.618;7.406;2023-03-23T08:26:13;99619.38;;;21.85;100.00
44992;BME280;56865;51.618;7.406;2023-03-23T08:28:43;99614.16;;;21.36;100.00
44992;BME280;56865;51.618;7.406;2023-03-23T08:31:14;99618.94;;;21.49;100.00
44992;BME280;56865;51.618;7.406;2023-03-23T08:33:44;99621.75;;;21.91;100.00
44992;BME280;56865;51.618;7.406;2023-03-23T08:36:16;99626.66;;;22.47;100.00
44992;BME280;56865;51.618;7.406;2023-03-23T08:38:46;99638.59;;;22.05;100.00
44992;BME280;56865;51.618;7.406;2023-03-23T08:41:18;99636.47;;;22.38;100.00
44992;BME280;56865;51.618;7.406;2023-03-23T08:43:47;99630.16;;;21.98;100.00
44992;BME280;56865;51.618;7.406;2023-03-23T08:46:19;99636.59;;;22.12;100.00
44992;BME280;56865;51.618;7.406;2023-03-23T08:48:50;99638.06;;;21.95;100.00
44992;BME280;56865;51.618;7.406;2023-03-23T08:51:23;99641.78;;;22.12;100.00
44992;BME280;56865;51.618;7.406;2023-03-23T08:53:53;99656.91;;;22.00;100.00
44992;BME280;56865;51.618;7.406;2023-03-23T08:56:23;99643.00;;;21.00;100.00
44992;BME280;56865;51.618;7.406;2023-03-23T08:58:54;99658.84;;;21.18;100.00
44992;BME280;56865;51.618;7.406;2023-03-23T09:01:23;99636.94;;;21.26;100.00
44992;BME280;56865;51.618;7.406;2023-03-23T09:03:53;99641.91;;;20.51;100.00
44992;BME280;56865;51.618;7.406;2023-03-23T09:06:26;99637.38;;;21.66;100.00
44992;BME280;56865;51.618;7.406;2023-03-23T09:08:56;99653.50;;;21.98;100.00
44992;BME280;56865;51.618;7.406;2023-03-23T09:11:27;99642.22;;;20.98;100.00
44992;BME280;56865;51.618;7.406;2023-03-23T09:13:57;99662.97;;;21.75;100.00
44992;BME280;56865;51.618;7.406;2023-03-23T09:16:26;99647.88;;;20.83;100.00
44992;BME280;56865;51.618;7.406;2023-03-23T09:18:56;99652.88;;;21.16;100.00
44992;BME280;56865;51.618;7.406;2023-03-23T09:21:29;99655.50;;;21.41;100.00
44992;BME280;56865;51.618;7.406;2023-03-23T09:23:59;99652.25;;;21.07;100.00
44992;BME280;56865;51.618;7.406;2023-03-23T09:26:28;99658.59;;;20.99;100.00
44992;BME280;56865;51.618;7.406;2023-03-23T09:28:58;99691.59;;;21.47;100.00
44992;BME280;56865;51.618;7.406;2023-03-23T09:31:28;99666.22;;;21.30;100.00
44992;BME280;56865;51.618;7.406;2023-03-23T09:33:58;99661.16;;;21.27;100.00
44992;BME280;56865;51.618;7.406;2023-03-23T09:36:33;99666.91;;;21.35;100.00
44992;BME280;56865;51.618;7.406;2023-03-23T09:39:02;99657.13;;;21.43;100.00
44992;BME280;56865;51.618;7.406;2023-03-23T09:41:39;99661.53;;;21.67;100.00
44992;BME280;56865;51.618;7.406;2023-03-23T09:44:13;99665.84;;;21.16;100.00
44992;BME280;56865;51.618;7.406;2023-03-23T09:46:49;99678.41;;;20.73;100.00
44992;BME280;56865;51.618;7.406;2023-03-23T09:49:21;99677.88;;;21.43;100.00
44992;BME280;56865;51.618;7.406;2023-03-23T09:51:56;99688.94;;;21.22;100.00
44992;BME280;56865;51.618;7.406;2023-03-23T09:54:27;99683.75;;;21.49;100.00
44992;BME280;56865;51.618;7.406;2023-03-23T09:57:00;99699.72;;;22.12;100.00
44992;BME280;56865;51.618;7.406;2023-03-23T09:59:31;99698.03;;;22.11;100.00
44992;BME280;56865;51.618;7.406;2023-03-23T10:02:09;99696.00;;;22.19;100.00
44992;BME280;56865;51.618;7.406;2023-03-23T10:04:42;99701.53;;;21.61;100.00
44992;BME280;56865;51.618;7.406;2023-03-23T10:07:17;99702.09;;;21.69;100.00
44992;BME280;56865;51.618;7.406;2023-03-23T10:09:48;99714.75;;;21.79;100.00
44992;BME280;56865;51.618;7.406;2023-03-23T10:12:23;99730.94;;;21.60;100.00
44992;BME280;56865;51.618;7.406;2023-03-23T10:14:58;98814.91;;;22.09;100.00
44992;BME280;56865;51.618;7.406;2023-03-23T10:17:33;98587.78;;;24.00;100.00
44992;BME280;56865;51.618;7.406;2023-03-23T10:20:21;99191.00;;;21.93;100.00
44992;BME280;56865;51.618;7.406;2023-03-23T10:22:59;98892.19;;;22.20;100.00
44992;BME280;56865;51.618;7.406;2023-03-23T10:25:32;98506.41;;;22.67;100.00
44992;BME280;56865;51.618;7.406;2023-03-23T10:28:04;98347.69;;;17.37;100.00
44992;BME280;56865;51.618;7.406;2023-03-23T10:30:36;98377.28;;;16.28;100.00
44992;BME280;56865;51.618;7.406;2023-03-23T10:33:10;98372.00;;;16.05;100.00
44992;BME280;56865;51.618;7.406;2023-03-23T10:35:42;98449.91;;;15.77;100.00
44992;BME280;56865;51.618;7.406;2023-03-23T10:38:17;98955.72;;;16.28;100.00
44992;BME280;56865;51.618;7.406;2023-03-23T10:40:49;99060.88;;;15.54;100.00
44992;BME280;56865;51.618;7.406;2023-03-23T10:43:20;99056.22;;;15.27;100.00
44992;BME280;56865;51.618;7.406;2023-03-23T10:45:51;99126.25;;;15.84;100.00
44992;BME280;56865;51.618;7.406;2023-03-23T10:48:27;99130.28;;;16.38;100.00
44992;BME280;56865;51.618;7.406;2023-03-23T10:50:59;99146.09;;;15.76;100.00
44992;BME280;56865;51.618;7.406;2023-03-23T10:53:34;99135.16;;;15.63;100.00
44992;BME280;56865;51.618;7.406;2023-03-23T10:56:05;99162.44;;;15.70;100.00
44992;BME280;56865;51.618;7.406;2023-03-23T10:58:35;99173.16;;;15.44;100.00
44992;BME280;56865;51.618;7.406;2023-03-23T11:01:05;99145.19;;;15.79;100.00
44992;BME280;56865;51.618;7.406;2023-03-23T11:03:38;99177.38;;;15.98;100.00
44992;BME280;56865;51.618;7.406;2023-03-23T11:06:09;99119.72;;;15.16;100.00
44992;BME280;56865;51.618;7.406;2023-03-23T11:08:51;99150.38;;;15.75;100.00
44992;BME280;56865;51.618;7.406;2023-03-23T11:11:24;99169.13;;;15.29;100.00
44992;BME280;56865;51.618;7.406;2023-03-23T11:13:58;99163.31;;;15.19;100.00
44992;BME280;56865;51.618;7.406;2023-03-23T11:16:29;98979.69;;;16.64;100.00
44992;BME280;56865;51.618;7.406;2023-03-23T11:19:11;99178.84;;;16.95;100.00
44992;BME280;56865;51.618;7.406;2023-03-23T11:21:45;99169.56;;;16.45;100.00
44992;BME280;56865;51.618;7.406;2023-03-23T11:24:20;99171.00;;;15.71;100.00
44992;BME280;56865;51.618;7.406;2023-03-23T11:26:50;99192.25;;;16.26;100.00
44992;BME280;56865;51.618;7.406;2023-03-23T11:29:24;99189.72;;;16.67;100.00
44992;BME280;56865;51.618;7.406;2023-03-23T11:32:01;99214.50;;;19.05;100.00
44992;BME280;56865;51.618;7.406;2023-03-23T11:34:33;99244.69;;;18.43;100.00
44992;BME280;56865;51.618;7.406;2023-03-23T11:37:05;99292.66;;;18.50;100.00
44992;BME280;56865;51.618;7.406;2023-03-23T11:39:48;98678.00;;;15.65;100.00
44992;BME280;56865;51.618;7.406;2023-03-23T11:42:22;98454.75;;;15.58;100.00
44992;BME280;56865;51.618;7.406;2023-03-23T11:44:54;98561.34;;;16.03;100.00
44992;BME280;56865;51.618;7.406;2023-03-23T11:47:36;98422.25;;;16.14;100.00
44992;BME280;56865;51.618;7.406;2023-03-23T11:50:10;98436.06;;;15.83;100.00
44992;BME280;56865;51.618;7.406;2023-03-23T11:52:43;98769.50;;;16.03;100.00
44992;BME280;56865;51.618;7.406;2023-03-23T11:55:17;99054.50;;;17.26;100.00
44992;BME280;56865;51.618;7.406;2023-03-23T11:57:52;99105.47;;;15.97;100.00
44992;BME280;56865;51.618;7.406;2023-03-23T12:00:23;99100.38;;;15.93;100.00
44992;BME280;56865;51.618;7.406;2023-03-23T12:05:43;99169.44;;;17.30;100.00
44992;BME280;56865;51.618;7.406;2023-03-23T12:08:19;99167.22;;;16.36;100.00
44992;BME280;56865;51.618;7.406;2023-03-23T12:10:55;98860.78;;;21.72;100.00
44992;BME280;56865;51.618;7.406;2023-03-23T12:13:31;99326.66;;;21.30;100.00
44992;BME280;56865;51.618;7.406;2023-03-23T12:16:07;99274.34;;;20.74;100.00
44992;BME280;56865;51.618;7.406;2023-03-23T12:18:45;99113.31;;;21.90;100.00
44992;BME280;56865;51.618;7.406;2023-03-23T12:21:20;99159.63;;;14.79;100.00
44992;BME280;56865;51.618;7.406;2023-03-23T12:23:56;99115.09;;;15.85;100.00
44992;BME280;56865;51.618;7.406;2023-03-23T12:26:36;99110.50;;;15.54;100.00
44992;BME280;56865;51.618;7.406;2023-03-23T12:29:12;99107.75;;;15.65;100.00
44992;BME280;56865;51.618;7.406;2023-03-23T12:31:46;99140.66;;;16.34;100.00
44992;BME280;56865;51.618;7.406;2023-03-23T12:34:21;99148.28;;;15.98;100.00
44992;BME280;56865;51.618;7.406;2023-03-23T12:36:56;99166.31;;;15.95;100.00
44992;BME280;56865;51.618;7.406;2023-03-23T12:39:34;99164.91;;;15.26;100.00
44992;BME280;56865;51.618;7.406;2023-03-23T12:42:11;99134.16;;;15.22;100.00
44992;BME280;56865;51.618;7.406;2023-03-23T12:44:46;99094.41;;;14.34;100.00
44992;BME280;56865;51.618;7.406;2023-03-23T12:50:05;99119.56;;;16.19;100.00
44992;BME280;56865;51.618;7.406;2023-03-23T12:52:38;99107.06;;;16.01;100.00
44992;BME280;56865;51.618;7.406;2023-03-23T12:55:14;99172.47;;;15.87;100.00
44992;BME280;56865;51.618;7.406;2023-03-23T12:57:49;99102.59;;;15.18;100.00
44992;BME280;56865;51.618;7.406;2023-03-23T13:00:22;98693.81;;;17.59;100.00
44992;BME280;56865;51.618;7.406;2023-03-23T13:02:55;98707.47;;;18.37;100.00
44992;BME280;56865;51.618;7.406;2023-03-23T13:05:27;99023.44;;;16.27;100.00
44992;BME280;56865;51.618;7.406;2023-03-23T13:07:59;99076.38;;;15.49;100.00
44992;BME280;56865;51.618;7.406;2023-03-23T13:10:31;99056.13;;;15.77;100.00
44992;BME280;56865;51.618;7.406;2023-03-23T13:13:06;99099.03;;;15.74;100.00
44992;BME280;56865;51.618;7.406;2023-03-23T13:15:51;99073.53;;;16.07;100.00
44992;BME280;56865;51.618;7.406;2023-03-23T13:18:29;99075.47;;;16.38;100.00
44992;BME280;56865;51.618;7.406;2023-03-23T13:21:06;99082.44;;;16.33;100.00
44992;BME280;56865;51.618;7.406;2023-03-23T13:23:39;99097.63;;;16.03;100.00
44992;BME280;56865;51.618;7.406;2023-03-23T13:26:11;99085.53;;;16.08;100.00
44992;BME280;56865;51.618;7.406;2023-03-23T13:28:49;99091.34;;;16.55;100.00